createdAt,value
2023-01-25T00:03:45.871Z,100560.68
2023-01-25T00:14:14.633Z,100551.92
2023-01-25T00:24:40.509Z,100550.34
2023-01-25T00:35:12.040Z,100541.48
2023-01-25T00:45:39.563Z,100536.80
2023-01-25T00:56:08.169Z,100545.77
2023-01-25T01:06:38.067Z,100542.79
2023-01-25T01:17:05.643Z,100536.95
2023-01-25T01:27:33.318Z,100523.73
2023-01-25T01:38:00.908Z,100497.96
2023-01-25T01:48:35.653Z,100484.69
2023-01-25T01:59:04.930Z,100479.71
2023-01-25T02:09:33.530Z,100462.42
2023-01-25T02:20:08.506Z,100455.09
2023-01-25T02:30:36.747Z,100445.35
2023-01-25T02:41:09.519Z,100446.02
2023-01-25T02:51:39.650Z,100445.66
2023-01-25T03:02:08.238Z,100443.53
2023-01-25T03:12:34.430Z,100442.87
2023-01-25T03:23:01.905Z,100438.27
2023-01-25T03:33:29.492Z,100431.20
2023-01-25T03:43:57.032Z,100436.80
2023-01-25T03:54:24.856Z,100431.38
2023-01-25T04:04:52.370Z,100425.88
2023-01-25T04:15:20.013Z,100415.20
2023-01-25T04:25:55.633Z,100409.38
2023-01-25T04:36:23.248Z,100401.40
2023-01-25T04:46:50.815Z,100389.49
2023-01-25T04:57:18.362Z,100379.32
2023-01-25T05:07:45.967Z,100378.65
2023-01-25T05:18:13.526Z,100377.61
2023-01-25T05:28:41.090Z,100365.05
2023-01-25T05:39:09.429Z,100354.30
2023-01-25T05:49:37.038Z,100347.05
2023-01-25T06:00:05.216Z,100346.12
2023-01-25T06:10:32.757Z,100345.75
2023-01-25T06:21:01.187Z,100350.68
2023-01-25T06:31:28.845Z,100348.77
2023-01-25T06:41:56.801Z,100344.91
2023-01-25T06:52:24.439Z,100339.86
2023-01-25T07:02:52.138Z,100337.47
2023-01-25T07:13:19.654Z,100333.17
2023-01-25T07:23:47.359Z,100323.10
2023-01-25T07:34:15.388Z,100315.92
2023-01-25T07:44:43.552Z,100311.44
2023-01-25T07:55:12.237Z,100303.95
2023-01-25T08:05:45.166Z,100291.42
2023-01-25T08:16:13.277Z,100292.80
2023-01-25T08:26:40.995Z,100285.99
2023-01-25T08:37:08.551Z,100276.15
2023-01-25T08:47:36.067Z,100266.05
2023-01-25T08:58:03.628Z,100259.92
2023-01-25T09:08:31.169Z,100250.34
2023-01-25T09:19:00.640Z,100245.27
2023-01-25T09:29:28.549Z,100244.38
2023-01-25T09:39:56.076Z,100233.80
2023-01-25T09:50:34.125Z,100226.95
2023-01-25T10:01:29.521Z,100200.77
2023-01-25T10:12:14.687Z,100172.58
2023-01-25T10:22:48.709Z,100165.38
2023-01-25T10:33:19.512Z,100147.69
2023-01-25T10:43:47.099Z,100136.42
2023-01-25T10:54:17.787Z,100131.27
2023-01-25T11:04:47.886Z,100116.64
2023-01-25T11:15:27.756Z,100103.98
2023-01-25T11:25:55.501Z,100081.90
2023-01-25T11:36:32.514Z,100067.81
2023-01-25T11:47:10.269Z,100061.27
2023-01-25T11:57:51.977Z,100042.87
2023-01-25T12:08:33.042Z,100024.65
2023-01-25T12:19:23.703Z,99994.58
2023-01-25T12:29:57.659Z,99973.98
2023-01-25T12:40:39.849Z,99966.83
2023-01-25T12:51:08.600Z,99956.34
2023-01-25T13:01:36.946Z,99946.01
2023-01-25T13:12:06.612Z,99944.49
2023-01-25T13:23:01.758Z,99933.46
2023-01-25T13:33:37.084Z,99923.11
2023-01-25T13:44:28.426Z,99907.21
2023-01-25T13:54:58.470Z,99896.69
2023-01-25T14:05:27.233Z,99889.23
2023-01-25T14:15:57.738Z,99874.25
2023-01-25T14:26:27.673Z,99859.27
2023-01-25T14:37:08.735Z,99851.55
2023-01-25T14:47:36.576Z,99847.36
2023-01-25T14:58:18.719Z,99835.69
2023-01-25T15:08:46.308Z,99821.83
2023-01-25T15:19:27.047Z,99810.29
2023-01-25T15:29:54.882Z,99801.22
2023-01-25T15:40:23.081Z,99790.70
2023-01-25T15:50:50.829Z,99792.86
2023-01-25T16:01:18.984Z,99796.41
2023-01-25T16:11:47.134Z,99776.81
2023-01-25T16:22:15.010Z,99759.45
2023-01-25T16:32:42.633Z,99748.24
2023-01-25T16:43:10.253Z,99735.26
2023-01-25T16:53:38.077Z,99732.77
2023-01-25T17:04:05.803Z,99724.40
2023-01-25T17:14:33.561Z,99706.25
2023-01-25T17:25:01.183Z,99693.13
2023-01-25T17:35:28.782Z,99682.98
2023-01-25T17:45:56.461Z,99668.15
2023-01-25T17:56:24.090Z,99656.96
2023-01-25T18:06:51.689Z,99655.88
2023-01-25T18:17:19.353Z,99650.63
2023-01-25T18:27:46.988Z,99640.29
2023-01-25T18:38:15.408Z,99626.90
2023-01-25T18:48:45.522Z,99612.67
2023-01-25T18:59:13.221Z,99614.05
2023-01-25T19:09:43.560Z,99603.48
2023-01-25T19:20:12.919Z,99587.27
2023-01-25T19:30:40.359Z,99573.73
2023-01-25T19:41:09.707Z,99566.23
2023-01-25T19:51:39.819Z,99559.88
2023-01-25T20:02:07.436Z,99550.02
2023-01-25T20:12:35.132Z,99547.75
2023-01-25T20:23:02.657Z,99536.83
2023-01-25T20:33:30.287Z,99528.45
2023-01-25T20:44:00.906Z,99521.98
2023-01-25T20:54:28.498Z,99522.14
2023-01-25T21:04:56.047Z,99506.93
2023-01-25T21:15:25.651Z,99502.75
2023-01-25T21:25:54.358Z,99489.11
2023-01-25T21:36:22.538Z,99481.23
2023-01-25T21:47:23.266Z,99470.25
2023-01-25T21:57:40.974Z,99473.27
2023-01-25T22:08:08.842Z,99459.98
2023-01-25T22:18:38.545Z,99448.38
2023-01-25T22:29:06.213Z,99442.48
2023-01-25T22:39:33.782Z,99440.41
2023-01-25T22:50:01.273Z,99433.77
2023-01-25T23:00:28.908Z,99423.88
2023-01-25T23:11:02.259Z,99415.57
2023-01-25T23:21:30.989Z,99401.78
2023-01-25T23:31:57.046Z,99386.61
2023-01-25T23:42:24.610Z,99370.40
2023-01-25T23:52:52.189Z,99363.67
